sensor_id;sensor_type;location;lat;lon;timestamp;P1;durP1;ratioP1;P2;durP2;ratioP2
45764;SDS011;31474;45.332;10.230;2023-07-31T00:01:26;6.00;;;5.43;;
45764;SDS011;31474;45.332;10.230;2023-07-31T00:03:51;6.68;;;5.97;;
45764;SDS011;31474;45.332;10.230;2023-07-31T00:06:17;9.60;;;5.82;;
45764;SDS011;31474;45.332;10.230;2023-07-31T00:08:43;6.70;;;5.60;;
45764;SDS011;31474;45.332;10.230;2023-07-31T00:11:08;6.60;;;5.95;;
45764;SDS011;31474;45.332;10.230;2023-07-31T00:13:34;7.45;;;5.68;;
45764;SDS011;31474;45.332;10.230;2023-07-31T00:15:59;6.18;;;5.38;;
45764;SDS011;31474;45.332;10.230;2023-07-31T00:18:25;9.52;;;7.15;;
45764;SDS011;31474;45.332;10.230;2023-07-31T00:20:51;6.72;;;6.03;;
45764;SDS011;31474;45.332;10.230;2023-07-31T00:23:16;7.53;;;6.82;;
45764;SDS011;31474;45.332;10.230;2023-07-31T00:25:42;7.18;;;6.47;;
45764;SDS011;31474;45.332;10.230;2023-07-31T00:28:08;8.38;;;6.68;;
45764;SDS011;31474;45.332;10.230;2023-07-31T00:30:33;7.65;;;6.95;;
45764;SDS011;31474;45.332;10.230;2023-07-31T00:32:59;9.23;;;7.55;;
45764;SDS011;31474;45.332;10.230;2023-07-31T00:35:25;10.65;;;7.22;;
45764;SDS011;31474;45.332;10.230;2023-07-31T00:37:51;8.57;;;7.75;;
45764;SDS011;31474;45.332;10.230;2023-07-31T00:40:16;8.95;;;7.20;;
45764;SDS011;31474;45.332;10.230;2023-07-31T00:42:42;7.90;;;7.05;;
45764;SDS011;31474;45.332;10.230;2023-07-31T00:45:07;8.77;;;7.97;;
45764;SDS011;31474;45.332;10.230;2023-07-31T00:47:33;11.00;;;7.10;;
45764;SDS011;31474;45.332;10.230;2023-07-31T00:49:59;7.43;;;6.68;;
45764;SDS011;31474;45.332;10.230;2023-07-31T00:52:25;10.10;;;7.22;;
45764;SDS011;31474;45.332;10.230;2023-07-31T00:54:51;8.13;;;6.22;;
45764;SDS011;31474;45.332;10.230;2023-07-31T00:57:17;8.60;;;7.50;;
45764;SDS011;31474;45.332;10.230;2023-07-31T00:59:42;9.38;;;8.05;;
45764;SDS011;31474;45.332;10.230;2023-07-31T01:02:08;7.68;;;6.95;;
45764;SDS011;31474;45.332;10.230;2023-07-31T01:04:34;8.35;;;6.78;;
45764;SDS011;31474;45.332;10.230;2023-07-31T01:10:01;9.18;;;6.65;;
45764;SDS011;31474;45.332;10.230;2023-07-31T01:12:31;7.07;;;6.38;;
45764;SDS011;31474;45.332;10.230;2023-07-31T01:15:05;9.32;;;6.28;;
45764;SDS011;31474;45.332;10.230;2023-07-31T01:17:35;7.22;;;6.53;;
45764;SDS011;31474;45.332;10.230;2023-07-31T01:20:03;9.45;;;6.57;;
45764;SDS011;31474;45.332;10.230;2023-07-31T01:22:53;11.13;;;7.20;;
45764;SDS011;31474;45.332;10.230;2023-07-31T01:31:24;8.25;;;6.15;;
45764;SDS011;31474;45.332;10.230;2023-07-31T01:33:53;9.05;;;8.13;;
45764;SDS011;31474;45.332;10.230;2023-07-31T01:36:19;8.23;;;7.43;;
45764;SDS011;31474;45.332;10.230;2023-07-31T01:38:45;12.13;;;7.07;;
45764;SDS011;31474;45.332;10.230;2023-07-31T01:41:11;8.35;;;7.55;;
45764;SDS011;31474;45.332;10.230;2023-07-31T01:43:37;9.98;;;7.68;;
45764;SDS011;31474;45.332;10.230;2023-07-31T01:46:02;7.47;;;6.63;;
45764;SDS011;31474;45.332;10.230;2023-07-31T01:48:28;8.25;;;6.80;;
45764;SDS011;31474;45.332;10.230;2023-07-31T01:50:53;8.50;;;7.53;;
45764;SDS011;31474;45.332;10.230;2023-07-31T01:53:19;8.98;;;7.38;;
45764;SDS011;31474;45.332;10.230;2023-07-31T01:55:45;8.02;;;7.15;;
45764;SDS011;31474;45.332;10.230;2023-07-31T01:58:10;8.95;;;8.05;;
45764;SDS011;31474;45.332;10.230;2023-07-31T02:00:36;7.38;;;6.53;;
45764;SDS011;31474;45.332;10.230;2023-07-31T02:03:02;8.27;;;7.47;;
45764;SDS011;31474;45.332;10.230;2023-07-31T02:05:27;8.65;;;7.75;;
45764;SDS011;31474;45.332;10.230;2023-07-31T02:07:53;8.55;;;7.75;;
45764;SDS011;31474;45.332;10.230;2023-07-31T02:10:18;8.95;;;7.63;;
45764;SDS011;31474;45.332;10.230;2023-07-31T02:12:44;7.93;;;7.22;;
45764;SDS011;31474;45.332;10.230;2023-07-31T02:15:10;9.50;;;8.20;;
45764;SDS011;31474;45.332;10.230;2023-07-31T02:17:35;10.23;;;7.25;;
45764;SDS011;31474;45.332;10.230;2023-07-31T02:20:01;7.93;;;7.20;;
45764;SDS011;31474;45.332;10.230;2023-07-31T02:22:27;11.27;;;7.25;;
45764;SDS011;31474;45.332;10.230;2023-07-31T02:24:53;8.05;;;7.25;;
45764;SDS011;31474;45.332;10.230;2023-07-31T02:27:18;8.63;;;7.03;;
45764;SDS011;31474;45.332;10.230;2023-07-31T02:29:44;8.40;;;7.38;;
45764;SDS011;31474;45.332;10.230;2023-07-31T02:32:10;9.05;;;8.15;;
45764;SDS011;31474;45.332;10.230;2023-07-31T02:34:35;10.80;;;8.45;;
45764;SDS011;31474;45.332;10.230;2023-07-31T02:37:01;9.68;;;8.23;;
45764;SDS011;31474;45.332;10.230;2023-07-31T02:39:27;9.93;;;8.35;;
45764;SDS011;31474;45.332;10.230;2023-07-31T02:41:52;11.93;;;9.50;;
45764;SDS011;31474;45.332;10.230;2023-07-31T02:44:18;10.10;;;9.10;;
45764;SDS011;31474;45.332;10.230;2023-07-31T02:46:45;9.40;;;8.50;;
45764;SDS011;31474;45.332;10.230;2023-07-31T02:49:11;11.35;;;10.10;;
45764;SDS011;31474;45.332;10.230;2023-07-31T02:51:36;11.88;;;9.75;;
45764;SDS011;31474;45.332;10.230;2023-07-31T02:54:02;10.68;;;9.73;;
45764;SDS011;31474;45.332;10.230;2023-07-31T02:56:28;11.38;;;9.98;;
45764;SDS011;31474;45.332;10.230;2023-07-31T02:58:53;16.00;;;10.60;;
45764;SDS011;31474;45.332;10.230;2023-07-31T03:01:19;11.82;;;10.73;;
45764;SDS011;31474;45.332;10.230;2023-07-31T03:03:44;12.07;;;10.60;;
45764;SDS011;31474;45.332;10.230;2023-07-31T03:06:10;13.07;;;11.68;;
45764;SDS011;31474;45.332;10.230;2023-07-31T03:08:36;12.35;;;11.07;;
45764;SDS011;31474;45.332;10.230;2023-07-31T03:11:01;11.82;;;10.52;;
45764;SDS011;31474;45.332;10.230;2023-07-31T03:13:27;12.77;;;11.48;;
45764;SDS011;31474;45.332;10.230;2023-07-31T03:15:53;13.27;;;10.50;;
45764;SDS011;31474;45.332;10.230;2023-07-31T03:18:18;15.73;;;11.40;;
45764;SDS011;31474;45.332;10.230;2023-07-31T03:20:44;13.77;;;12.18;;
45764;SDS011;31474;45.332;10.230;2023-07-31T03:23:10;12.10;;;11.00;;
45764;SDS011;31474;45.332;10.230;2023-07-31T03:25:36;12.10;;;10.65;;
45764;SDS011;31474;45.332;10.230;2023-07-31T03:28:01;13.88;;;12.27;;
45764;SDS011;31474;45.332;10.230;2023-07-31T03:30:27;12.32;;;11.13;;
45764;SDS011;31474;45.332;10.230;2023-07-31T03:32:53;13.07;;;11.60;;
45764;SDS011;31474;45.332;10.230;2023-07-31T03:35:18;13.77;;;12.07;;
45764;SDS011;31474;45.332;10.230;2023-07-31T03:37:44;12.90;;;11.60;;
45764;SDS011;31474;45.332;10.230;2023-07-31T03:40:10;13.60;;;11.38;;
45764;SDS011;31474;45.332;10.230;2023-07-31T03:42:36;14.98;;;11.30;;
45764;SDS011;31474;45.332;10.230;2023-07-31T03:45:01;12.23;;;10.52;;
45764;SDS011;31474;45.332;10.230;2023-07-31T03:47:27;12.48;;;11.18;;
45764;SDS011;31474;45.332;10.230;2023-07-31T03:49:53;11.70;;;10.52;;
45764;SDS011;31474;45.332;10.230;2023-07-31T03:52:19;12.85;;;10.82;;
45764;SDS011;31474;45.332;10.230;2023-07-31T03:54:44;11.85;;;10.70;;
45764;SDS011;31474;45.332;10.230;2023-07-31T03:57:10;13.63;;;9.77;;
45764;SDS011;31474;45.332;10.230;2023-07-31T03:59:36;10.38;;;8.75;;
45764;SDS011;31474;45.332;10.230;2023-07-31T04:02:04;13.10;;;10.10;;
45764;SDS011;31474;45.332;10.230;2023-07-31T04:04:29;10.25;;;9.20;;
45764;SDS011;31474;45.332;10.230;2023-07-31T04:06:55;14.65;;;9.55;;
45764;SDS011;31474;45.332;10.230;2023-07-31T04:09:21;12.20;;;9.68;;
45764;SDS011;31474;45.332;10.230;2023-07-31T04:11:46;10.80;;;9.18;;
45764;SDS011;31474;45.332;10.230;2023-07-31T04:14:12;10.13;;;9.18;;
45764;SDS011;31474;45.332;10.230;2023-07-31T04:16:38;15.55;;;9.10;;
45764;SDS011;31474;45.332;10.230;2023-07-31T04:19:03;10.30;;;9.00;;
45764;SDS011;31474;45.332;10.230;2023-07-31T04:21:29;10.32;;;9.23;;
45764;SDS011;31474;45.332;10.230;2023-07-31T04:23:55;13.15;;;9.73;;
45764;SDS011;31474;45.332;10.230;2023-07-31T04:26:21;10.88;;;8.43;;
45764;SDS011;31474;45.332;10.230;2023-07-31T04:28:47;10.13;;;8.75;;
45764;SDS011;31474;45.332;10.230;2023-07-31T04:31:12;9.70;;;8.70;;
45764;SDS011;31474;45.332;10.230;2023-07-31T04:33:38;9.35;;;8.35;;
45764;SDS011;31474;45.332;10.230;2023-07-31T04:36:04;10.02;;;8.02;;
45764;SDS011;31474;45.332;10.230;2023-07-31T04:38:30;11.65;;;7.75;;
45764;SDS011;31474;45.332;10.230;2023-07-31T04:40:55;8.90;;;7.60;;
45764;SDS011;31474;45.332;10.230;2023-07-31T04:43:21;7.68;;;6.93;;
45764;SDS011;31474;45.332;10.230;2023-07-31T04:45:47;8.40;;;7.55;;
45764;SDS011;31474;45.332;10.230;2023-07-31T04:48:13;8.05;;;7.25;;
45764;SDS011;31474;45.332;10.230;2023-07-31T04:50:39;7.78;;;6.88;;
45764;SDS011;31474;45.332;10.230;2023-07-31T04:53:05;9.13;;;7.47;;
45764;SDS011;31474;45.332;10.230;2023-07-31T04:55:31;7.90;;;7.03;;
45764;SDS011;31474;45.332;10.230;2023-07-31T04:57:57;7.10;;;6.28;;
45764;SDS011;31474;45.332;10.230;2023-07-31T05:00:24;8.43;;;7.03;;
45764;SDS011;31474;45.332;10.230;2023-07-31T05:02:49;7.28;;;6.63;;
45764;SDS011;31474;45.332;10.230;2023-07-31T05:05:15;8.07;;;6.72;;
45764;SDS011;31474;45.332;10.230;2023-07-31T05:07:41;8.38;;;6.57;;
45764;SDS011;31474;45.332;10.230;2023-07-31T05:10:06;11.43;;;7.65;;
45764;SDS011;31474;45.332;10.230;2023-07-31T05:12:32;7.40;;;6.45;;
45764;SDS011;31474;45.332;10.230;2023-07-31T05:14:58;7.70;;;6.50;;
45764;SDS011;31474;45.332;10.230;2023-07-31T05:17:24;10.10;;;6.35;;
45764;SDS011;31474;45.332;10.230;2023-07-31T05:19:49;7.70;;;6.65;;
45764;SDS011;31474;45.332;10.230;2023-07-31T05:22:15;7.53;;;5.72;;
45764;SDS011;31474;45.332;10.230;2023-07-31T05:24:40;7.30;;;5.72;;
45764;SDS011;31474;45.332;10.230;2023-07-31T05:27:06;6.53;;;5.53;;
45764;SDS011;31474;45.332;10.230;2023-07-31T05:29:32;7.90;;;5.18;;
45764;SDS011;31474;45.332;10.230;2023-07-31T05:31:57;5.53;;;5.03;;
45764;SDS011;31474;45.332;10.230;2023-07-31T05:34:23;8.65;;;5.25;;
45764;SDS011;31474;45.332;10.230;2023-07-31T05:36:49;6.07;;;5.40;;
45764;SDS011;31474;45.332;10.230;2023-07-31T05:39:14;6.18;;;5.55;;
45764;SDS011;31474;45.332;10.230;2023-07-31T05:41:40;6.72;;;5.32;;
45764;SDS011;31474;45.332;10.230;2023-07-31T05:44:05;5.40;;;4.90;;
45764;SDS011;31474;45.332;10.230;2023-07-31T05:46:31;6.20;;;4.68;;
45764;SDS011;31474;45.332;10.230;2023-07-31T05:48:57;6.13;;;4.65;;
45764;SDS011;31474;45.332;10.230;2023-07-31T05:51:25;8.10;;;4.50;;
45764;SDS011;31474;45.332;10.230;2023-07-31T05:53:51;4.57;;;4.13;;
45764;SDS011;31474;45.332;10.230;2023-07-31T05:56:17;4.63;;;3.92;;
45764;SDS011;31474;45.332;10.230;2023-07-31T05:58:42;5.03;;;4.53;;
45764;SDS011;31474;45.332;10.230;2023-07-31T06:01:08;7.60;;;4.18;;
45764;SDS011;31474;45.332;10.230;2023-07-31T06:03:34;6.45;;;4.30;;
45764;SDS011;31474;45.332;10.230;2023-07-31T06:05:59;4.70;;;3.60;;
45764;SDS011;31474;45.332;10.230;2023-07-31T06:08:25;5.20;;;3.55;;
45764;SDS011;31474;45.332;10.230;2023-07-31T06:10:51;4.85;;;3.58;;
45764;SDS011;31474;45.332;10.230;2023-07-31T06:13:16;4.10;;;3.60;;
45764;SDS011;31474;45.332;10.230;2023-07-31T06:15:42;6.40;;;3.88;;
45764;SDS011;31474;45.332;10.230;2023-07-31T06:18:08;3.45;;;3.00;;
45764;SDS011;31474;45.332;10.230;2023-07-31T06:20:34;4.93;;;3.38;;
45764;SDS011;31474;45.332;10.230;2023-07-31T06:23:00;3.22;;;2.90;;
45764;SDS011;31474;45.332;10.230;2023-07-31T06:25:25;7.32;;;3.20;;
45764;SDS011;31474;45.332;10.230;2023-07-31T06:27:51;3.28;;;2.97;;
45764;SDS011;31474;45.332;10.230;2023-07-31T06:30:16;4.03;;;2.70;;
45764;SDS011;31474;45.332;10.230;2023-07-31T06:32:42;3.38;;;2.58;;
45764;SDS011;31474;45.332;10.230;2023-07-31T06:35:08;6.53;;;2.67;;
45764;SDS011;31474;45.332;10.230;2023-07-31T06:37:34;3.05;;;2.65;;
45764;SDS011;31474;45.332;10.230;2023-07-31T06:39:59;4.07;;;2.83;;
45764;SDS011;31474;45.332;10.230;2023-07-31T06:42:25;4.95;;;2.80;;
45764;SDS011;31474;45.332;10.230;2023-07-31T06:44:51;3.80;;;3.20;;
45764;SDS011;31474;45.332;10.230;2023-07-31T06:47:16;6.25;;;3.35;;
45764;SDS011;31474;45.332;10.230;2023-07-31T06:49:42;5.10;;;4.07;;
45764;SDS011;31474;45.332;10.230;2023-07-31T06:52:08;5.22;;;3.47;;
45764;SDS011;31474;45.332;10.230;2023-07-31T06:54:34;3.20;;;2.90;;
45764;SDS011;31474;45.332;10.230;2023-07-31T06:57:00;5.43;;;3.00;;
45764;SDS011;31474;45.332;10.230;2023-07-31T06:59:25;5.25;;;2.58;;
45764;SDS011;31474;45.332;10.230;2023-07-31T07:01:51;3.40;;;3.10;;
45764;SDS011;31474;45.332;10.230;2023-07-31T07:04:17;4.55;;;2.88;;
45764;SDS011;31474;45.332;10.230;2023-07-31T07:06:42;6.45;;;3.55;;
45764;SDS011;31474;45.332;10.230;2023-07-31T07:09:08;5.25;;;3.20;;
45764;SDS011;31474;45.332;10.230;2023-07-31T07:11:33;4.00;;;3.47;;
45764;SDS011;31474;45.332;10.230;2023-07-31T07:13:59;4.60;;;3.50;;
45764;SDS011;31474;45.332;10.230;2023-07-31T07:16:25;3.42;;;3.13;;
45764;SDS011;31474;45.332;10.230;2023-07-31T07:18:53;3.17;;;2.88;;
45764;SDS011;31474;45.332;10.230;2023-07-31T07:21:19;4.30;;;3.10;;
45764;SDS011;31474;45.332;10.230;2023-07-31T07:23:45;5.68;;;3.90;;
45764;SDS011;31474;45.332;10.230;2023-07-31T07:26:10;5.93;;;3.28;;
45764;SDS011;31474;45.332;10.230;2023-07-31T07:28:36;4.72;;;3.40;;
45764;SDS011;31474;45.332;10.230;2023-07-31T07:31:02;4.20;;;3.00;;
45764;SDS011;31474;45.332;10.230;2023-07-31T07:33:28;3.75;;;3.33;;
45764;SDS011;31474;45.332;10.230;2023-07-31T07:35:53;5.65;;;3.10;;
45764;SDS011;31474;45.332;10.230;2023-07-31T07:38:19;5.97;;;3.25;;
45764;SDS011;31474;45.332;10.230;2023-07-31T07:40:45;3.50;;;3.03;;
45764;SDS011;31474;45.332;10.230;2023-07-31T07:43:15;4.78;;;3.08;;
45764;SDS011;31474;45.332;10.230;2023-07-31T07:45:41;5.35;;;3.20;;
45764;SDS011;31474;45.332;10.230;2023-07-31T07:48:06;4.25;;;3.22;;
45764;SDS011;31474;45.332;10.230;2023-07-31T07:50:32;5.97;;;3.20;;
45764;SDS011;31474;45.332;10.230;2023-07-31T07:52:58;3.67;;;3.17;;
45764;SDS011;31474;45.332;10.230;2023-07-31T07:55:23;5.65;;;2.85;;
45764;SDS011;31474;45.332;10.230;2023-07-31T07:57:49;4.13;;;2.83;;
45764;SDS011;31474;45.332;10.230;2023-07-31T08:00:15;3.00;;;2.70;;
45764;SDS011;31474;45.332;10.230;2023-07-31T08:02:42;4.15;;;2.83;;
45764;SDS011;31474;45.332;10.230;2023-07-31T08:05:08;2.80;;;2.60;;
45764;SDS011;31474;45.332;10.230;2023-07-31T08:07:34;6.47;;;2.95;;
45764;SDS011;31474;45.332;10.230;2023-07-31T08:09:59;5.90;;;3.05;;
45764;SDS011;31474;45.332;10.230;2023-07-31T08:12:25;3.97;;;2.88;;
45764;SDS011;31474;45.332;10.230;2023-07-31T08:14:51;4.18;;;2.85;;
45764;SDS011;31474;45.332;10.230;2023-07-31T08:17:17;4.80;;;3.03;;
45764;SDS011;31474;45.332;10.230;2023-07-31T08:19:42;3.13;;;2.72;;
45764;SDS011;31474;45.332;10.230;2023-07-31T08:22:09;3.40;;;3.10;;
45764;SDS011;31474;45.332;10.230;2023-07-31T08:24:34;3.95;;;3.47;;
45764;SDS011;31474;45.332;10.230;2023-07-31T08:27:00;4.45;;;3.53;;
45764;SDS011;31474;45.332;10.230;2023-07-31T08:29:26;3.80;;;3.35;;
45764;SDS011;31474;45.332;10.230;2023-07-31T08:31:51;6.30;;;3.67;;
45764;SDS011;31474;45.332;10.230;2023-07-31T08:34:17;3.30;;;3.00;;
45764;SDS011;31474;45.332;10.230;2023-07-31T08:36:43;3.97;;;3.08;;
45764;SDS011;31474;45.332;10.230;2023-07-31T08:39:08;5.45;;;3.28;;
45764;SDS011;31474;45.332;10.230;2023-07-31T08:41:40;4.80;;;3.67;;
45764;SDS011;31474;45.332;10.230;2023-07-31T08:44:06;5.55;;;3.78;;
45764;SDS011;31474;45.332;10.230;2023-07-31T08:46:32;4.30;;;3.88;;
45764;SDS011;31474;45.332;10.230;2023-07-31T08:48:59;4.32;;;3.63;;
45764;SDS011;31474;45.332;10.230;2023-07-31T08:51:26;6.05;;;4.15;;
45764;SDS011;31474;45.332;10.230;2023-07-31T08:53:52;6.57;;;3.40;;
45764;SDS011;31474;45.332;10.230;2023-07-31T08:56:18;4.80;;;4.15;;
45764;SDS011;31474;45.332;10.230;2023-07-31T08:58:44;4.90;;;3.80;;
45764;SDS011;31474;45.332;10.230;2023-07-31T09:01:12;4.25;;;3.90;;
45764;SDS011;31474;45.332;10.230;2023-07-31T09:03:39;5.53;;;3.90;;
45764;SDS011;31474;45.332;10.230;2023-07-31T09:06:06;5.88;;;3.20;;
45764;SDS011;31474;45.332;10.230;2023-07-31T09:08:33;3.85;;;3.25;;
45764;SDS011;31474;45.332;10.230;2023-07-31T09:10:59;4.22;;;2.72;;
45764;SDS011;31474;45.332;10.230;2023-07-31T09:13:29;3.42;;;3.13;;
45764;SDS011;31474;45.332;10.230;2023-07-31T09:15:56;4.78;;;3.30;;
45764;SDS011;31474;45.332;10.230;2023-07-31T09:18:21;5.35;;;3.35;;
45764;SDS011;31474;45.332;10.230;2023-07-31T09:21:03;6.07;;;3.22;;
45764;SDS011;31474;45.332;10.230;2023-07-31T09:26:10;2.90;;;2.53;;
45764;SDS011;31474;45.332;10.230;2023-07-31T09:28:37;4.70;;;3.35;;
45764;SDS011;31474;45.332;10.230;2023-07-31T09:31:02;4.55;;;2.70;;
45764;SDS011;31474;45.332;10.230;2023-07-31T09:33:28;2.75;;;2.40;;
45764;SDS011;31474;45.332;10.230;2023-07-31T09:35:54;2.80;;;2.40;;
45764;SDS011;31474;45.332;10.230;2023-07-31T09:38:19;2.10;;;1.90;;
45764;SDS011;31474;45.332;10.230;2023-07-31T09:40:46;2.60;;;2.40;;
45764;SDS011;31474;45.332;10.230;2023-07-31T09:43:13;2.05;;;1.50;;
45764;SDS011;31474;45.332;10.230;2023-07-31T09:45:43;2.63;;;2.15;;
45764;SDS011;31474;45.332;10.230;2023-07-31T09:48:11;4.43;;;2.10;;
45764;SDS011;31474;45.332;10.230;2023-07-31T09:50:39;2.72;;;2.13;;
45764;SDS011;31474;45.332;10.230;2023-07-31T09:53:06;2.55;;;2.00;;
45764;SDS011;31474;45.332;10.230;2023-07-31T09:55:33;2.80;;;1.75;;
45764;SDS011;31474;45.332;10.230;2023-07-31T09:58:03;2.40;;;2.20;;
45764;SDS011;31474;45.332;10.230;2023-07-31T10:02:59;2.47;;;1.67;;
45764;SDS011;31474;45.332;10.230;2023-07-31T10:05:29;3.20;;;1.77;;
45764;SDS011;31474;45.332;10.230;2023-07-31T10:07:59;4.18;;;1.63;;
45764;SDS011;31474;45.332;10.230;2023-07-31T10:10:25;2.95;;;1.77;;
45764;SDS011;31474;45.332;10.230;2023-07-31T10:12:52;2.63;;;1.95;;
45764;SDS011;31474;45.332;10.230;2023-07-31T10:15:19;1.98;;;1.63;;
45764;SDS011;31474;45.332;10.230;2023-07-31T10:17:47;1.35;;;1.10;;
45764;SDS011;31474;45.332;10.230;2023-07-31T10:20:14;2.33;;;1.40;;
45764;SDS011;31474;45.332;10.230;2023-07-31T10:22:41;1.95;;;1.30;;
45764;SDS011;31474;45.332;10.230;2023-07-31T10:25:08;1.65;;;1.35;;
45764;SDS011;31474;45.332;10.230;2023-07-31T10:27:38;1.33;;;1.00;;
45764;SDS011;31474;45.332;10.230;2023-07-31T10:30:26;1.17;;;1.08;;
45764;SDS011;31474;45.332;10.230;2023-07-31T10:32:52;1.58;;;1.33;;
45764;SDS011;31474;45.332;10.230;2023-07-31T10:35:19;1.55;;;1.23;;
45764;SDS011;31474;45.332;10.230;2023-07-31T10:37:47;1.67;;;1.20;;
45764;SDS011;31474;45.332;10.230;2023-07-31T10:40:17;2.95;;;1.63;;
45764;SDS011;31474;45.332;10.230;2023-07-31T10:42:54;3.47;;;1.65;;
45764;SDS011;31474;45.332;10.230;2023-07-31T10:45:31;2.47;;;1.90;;
45764;SDS011;31474;45.332;10.230;2023-07-31T10:48:01;4.15;;;1.42;;
45764;SDS011;31474;45.332;10.230;2023-07-31T10:50:31;2.47;;;1.77;;
45764;SDS011;31474;45.332;10.230;2023-07-31T10:53:04;1.65;;;1.50;;
45764;SDS011;31474;45.332;10.230;2023-07-31T10:55:41;2.15;;;1.58;;
45764;SDS011;31474;45.332;10.230;2023-07-31T10:58:11;2.63;;;1.73;;
45764;SDS011;31474;45.332;10.230;2023-07-31T11:00:39;2.30;;;1.95;;
45764;SDS011;31474;45.332;10.230;2023-07-31T11:03:10;1.60;;;1.33;;
45764;SDS011;31474;45.332;10.230;2023-07-31T11:08:34;2.08;;;1.38;;
45764;SDS011;31474;45.332;10.230;2023-07-31T11:11:06;1.73;;;1.63;;
45764;SDS011;31474;45.332;10.230;2023-07-31T11:13:40;3.05;;;1.70;;
45764;SDS011;31474;45.332;10.230;2023-07-31T11:16:17;3.45;;;1.88;;
45764;SDS011;31474;45.332;10.230;2023-07-31T11:18:45;2.05;;;1.55;;
45764;SDS011;31474;45.332;10.230;2023-07-31T11:21:13;2.13;;;1.92;;
45764;SDS011;31474;45.332;10.230;2023-07-31T11:23:40;1.70;;;1.60;;
45764;SDS011;31474;45.332;10.230;2023-07-31T11:26:06;2.20;;;1.67;;
45764;SDS011;31474;45.332;10.230;2023-07-31T11:28:33;2.03;;;1.83;;
45764;SDS011;31474;45.332;10.230;2023-07-31T11:30:59;2.50;;;2.03;;
45764;SDS011;31474;45.332;10.230;2023-07-31T11:33:26;2.35;;;2.13;;
45764;SDS011;31474;45.332;10.230;2023-07-31T11:35:52;2.55;;;1.80;;
45764;SDS011;31474;45.332;10.230;2023-07-31T11:38:24;2.38;;;1.90;;
45764;SDS011;31474;45.332;10.230;2023-07-31T11:40:52;2.42;;;1.65;;
45764;SDS011;31474;45.332;10.230;2023-07-31T11:43:28;3.58;;;1.85;;
45764;SDS011;31474;45.332;10.230;2023-07-31T11:45:55;2.10;;;1.80;;
45764;SDS011;31474;45.332;10.230;2023-07-31T11:48:28;1.90;;;1.60;;
45764;SDS011;31474;45.332;10.230;2023-07-31T11:50:59;1.52;;;1.35;;
45764;SDS011;31474;45.332;10.230;2023-07-31T11:56:07;3.05;;;1.45;;
45764;SDS011;31474;45.332;10.230;2023-07-31T11:58:36;2.38;;;1.63;;
45764;SDS011;31474;45.332;10.230;2023-07-31T12:01:03;3.47;;;1.40;;
45764;SDS011;31474;45.332;10.230;2023-07-31T12:03:29;1.95;;;1.30;;
45764;SDS011;31474;45.332;10.230;2023-07-31T12:05:58;2.95;;;1.40;;
45764;SDS011;31474;45.332;10.230;2023-07-31T12:08:24;1.90;;;1.45;;
45764;SDS011;31474;45.332;10.230;2023-07-31T12:10:51;1.48;;;1.20;;
45764;SDS011;31474;45.332;10.230;2023-07-31T12:13:21;2.22;;;1.35;;
45764;SDS011;31474;45.332;10.230;2023-07-31T12:15:54;1.40;;;1.30;;
45764;SDS011;31474;45.332;10.230;2023-07-31T12:18:22;2.78;;;1.40;;
45764;SDS011;31474;45.332;10.230;2023-07-31T12:20:53;1.40;;;1.30;;
45764;SDS011;31474;45.332;10.230;2023-07-31T12:23:21;1.73;;;1.40;;
45764;SDS011;31474;45.332;10.230;2023-07-31T12:28:26;2.13;;;1.48;;
45764;SDS011;31474;45.332;10.230;2023-07-31T12:30:52;1.33;;;1.17;;
45764;SDS011;31474;45.332;10.230;2023-07-31T12:33:35;1.95;;;1.73;;
45764;SDS011;31474;45.332;10.230;2023-07-31T12:36:03;3.35;;;1.60;;
45764;SDS011;31474;45.332;10.230;2023-07-31T12:38:30;3.65;;;1.40;;
45764;SDS011;31474;45.332;10.230;2023-07-31T12:40:56;2.15;;;1.70;;
45764;SDS011;31474;45.332;10.230;2023-07-31T12:43:21;2.00;;;1.55;;
45764;SDS011;31474;45.332;10.230;2023-07-31T12:45:47;3.35;;;1.55;;
45764;SDS011;31474;45.332;10.230;2023-07-31T12:48:13;2.67;;;1.23;;
45764;SDS011;31474;45.332;10.230;2023-07-31T12:50:38;1.55;;;1.40;;
45764;SDS011;31474;45.332;10.230;2023-07-31T12:53:05;1.67;;;1.58;;
45764;SDS011;31474;45.332;10.230;2023-07-31T12:55:31;6.63;;;1.67;;
45764;SDS011;31474;45.332;10.230;2023-07-31T12:57:59;4.80;;;1.50;;
45764;SDS011;31474;45.332;10.230;2023-07-31T13:00:25;1.95;;;1.67;;
45764;SDS011;31474;45.332;10.230;2023-07-31T13:02:51;3.33;;;1.55;;
45764;SDS011;31474;45.332;10.230;2023-07-31T13:05:17;2.10;;;1.42;;
45764;SDS011;31474;45.332;10.230;2023-07-31T13:07:45;6.35;;;1.63;;
45764;SDS011;31474;45.332;10.230;2023-07-31T13:10:11;2.80;;;1.65;;
45764;SDS011;31474;45.332;10.230;2023-07-31T13:12:37;1.92;;;1.55;;
45764;SDS011;31474;45.332;10.230;2023-07-31T13:15:03;4.20;;;1.80;;
45764;SDS011;31474;45.332;10.230;2023-07-31T13:17:30;1.45;;;1.25;;
45764;SDS011;31474;45.332;10.230;2023-07-31T13:19:56;3.70;;;1.90;;
45764;SDS011;31474;45.332;10.230;2023-07-31T13:22:21;1.70;;;1.42;;
45764;SDS011;31474;45.332;10.230;2023-07-31T13:24:47;4.95;;;1.50;;
45764;SDS011;31474;45.332;10.230;2023-07-31T13:27:13;2.35;;;1.77;;
45764;SDS011;31474;45.332;10.230;2023-07-31T13:29:43;2.17;;;1.90;;
45764;SDS011;31474;45.332;10.230;2023-07-31T13:32:09;2.60;;;1.73;;
45764;SDS011;31474;45.332;10.230;2023-07-31T13:34:34;1.80;;;1.50;;
45764;SDS011;31474;45.332;10.230;2023-07-31T13:37:00;1.88;;;1.38;;
45764;SDS011;31474;45.332;10.230;2023-07-31T13:39:26;2.40;;;1.67;;
45764;SDS011;31474;45.332;10.230;2023-07-31T13:41:51;3.28;;;1.85;;
45764;SDS011;31474;45.332;10.230;2023-07-31T13:44:17;2.60;;;1.88;;
45764;SDS011;31474;45.332;10.230;2023-07-31T13:46:42;2.42;;;1.80;;
45764;SDS011;31474;45.332;10.230;2023-07-31T13:49:08;1.98;;;1.80;;
45764;SDS011;31474;45.332;10.230;2023-07-31T13:51:34;1.67;;;1.55;;
45764;SDS011;31474;45.332;10.230;2023-07-31T13:54:00;2.28;;;1.63;;
45764;SDS011;31474;45.332;10.230;2023-07-31T13:56:26;2.58;;;1.83;;
45764;SDS011;31474;45.332;10.230;2023-07-31T13:58:52;2.50;;;1.42;;
45764;SDS011;31474;45.332;10.230;2023-07-31T14:01:18;2.92;;;1.70;;
45764;SDS011;31474;45.332;10.230;2023-07-31T14:03:43;3.03;;;1.50;;
45764;SDS011;31474;45.332;10.230;2023-07-31T14:06:09;3.55;;;1.25;;
45764;SDS011;31474;45.332;10.230;2023-07-31T14:08:35;4.18;;;1.98;;
45764;SDS011;31474;45.332;10.230;2023-07-31T14:11:00;1.90;;;1.40;;
45764;SDS011;31474;45.332;10.230;2023-07-31T14:13:26;1.33;;;1.23;;
45764;SDS011;31474;45.332;10.230;2023-07-31T14:15:52;2.35;;;1.95;;
45764;SDS011;31474;45.332;10.230;2023-07-31T14:18:18;1.83;;;1.63;;
45764;SDS011;31474;45.332;10.230;2023-07-31T14:20:44;3.33;;;1.70;;
45764;SDS011;31474;45.332;10.230;2023-07-31T14:23:09;2.97;;;1.80;;
45764;SDS011;31474;45.332;10.230;2023-07-31T14:25:35;3.72;;;1.83;;
45764;SDS011;31474;45.332;10.230;2023-07-31T14:28:01;1.70;;;1.60;;
45764;SDS011;31474;45.332;10.230;2023-07-31T14:30:26;2.42;;;1.73;;
45764;SDS011;31474;45.332;10.230;2023-07-31T14:32:52;1.77;;;1.48;;
45764;SDS011;31474;45.332;10.230;2023-07-31T14:35:18;1.80;;;1.70;;
45764;SDS011;31474;45.332;10.230;2023-07-31T14:37:44;4.00;;;1.77;;
45764;SDS011;31474;45.332;10.230;2023-07-31T14:40:11;3.75;;;2.10;;
45764;SDS011;31474;45.332;10.230;2023-07-31T14:42:38;4.30;;;1.65;;
45764;SDS011;31474;45.332;10.230;2023-07-31T14:45:05;2.95;;;1.52;;
45764;SDS011;31474;45.332;10.230;2023-07-31T14:47:31;3.28;;;1.45;;
45764;SDS011;31474;45.332;10.230;2023-07-31T14:49:57;4.15;;;2.00;;